createdAt,value
2023-04-18T00:04:19.903Z,10.00
2023-04-18T00:10:14.005Z,10.10
2023-04-18T00:16:09.577Z,10.30
2023-04-18T00:22:02.991Z,10.10
2023-04-18T00:27:56.468Z,10.00
2023-04-18T00:33:52.139Z,10.30
2023-04-18T00:39:45.255Z,10.10
2023-04-18T00:45:38.359Z,10.10
2023-04-18T00:51:33.652Z,10.00
2023-04-18T00:57:26.788Z,10.00
2023-04-18T01:03:20.007Z,10.00
2023-04-18T01:09:15.852Z,10.10
2023-04-18T01:15:11.771Z,10.00
2023-04-18T01:21:06.181Z,9.60
2023-04-18T01:27:01.761Z,9.80
2023-04-18T01:32:54.865Z,9.90
2023-04-18T01:38:48.101Z,9.70
2023-04-18T01:44:43.163Z,9.70
2023-04-18T01:50:36.417Z,9.70
2023-04-18T01:56:29.749Z,9.60
2023-04-18T02:02:26.366Z,9.70
2023-04-18T02:08:19.928Z,9.70
2023-04-18T02:14:13.351Z,9.40
2023-04-18T02:20:09.483Z,9.70
2023-04-18T02:26:02.813Z,9.60
2023-04-18T02:31:56.078Z,9.50
2023-04-18T02:37:50.528Z,9.30
2023-04-18T02:43:43.846Z,9.20
2023-04-18T02:49:37.398Z,8.80
2023-04-18T02:55:32.264Z,9.10
2023-04-18T03:01:27.168Z,9.00
2023-04-18T03:07:32.041Z,8.90
2023-04-18T03:13:27.614Z,9.00
2023-04-18T03:19:22.029Z,9.20
2023-04-18T03:25:17.227Z,9.20
2023-04-18T03:31:17.285Z,9.30
2023-04-18T03:37:11.522Z,9.20
2023-04-18T03:43:10.786Z,9.00
2023-04-18T03:49:05.542Z,9.00
2023-04-18T03:54:58.695Z,9.00
2023-04-18T04:00:59.055Z,8.80
2023-04-18T04:06:53.794Z,8.60
2023-04-18T04:12:47.191Z,8.50
2023-04-18T04:18:40.652Z,8.70
2023-04-18T04:24:35.410Z,8.50
2023-04-18T04:30:29.313Z,8.50
2023-04-18T04:36:27.317Z,8.50
2023-04-18T04:42:26.188Z,8.60
2023-04-18T04:48:27.210Z,8.70
2023-04-18T04:54:21.056Z,8.60
2023-04-18T05:00:20.988Z,8.80
2023-04-18T05:06:20.615Z,8.80
2023-04-18T05:12:13.718Z,8.70
2023-04-18T05:18:08.639Z,8.70
2023-04-18T05:24:01.813Z,8.80
2023-04-18T05:29:55.340Z,8.90
2023-04-18T05:35:49.845Z,8.90
2023-04-18T05:41:42.922Z,9.10
2023-04-18T05:47:36.644Z,8.90
2023-04-18T05:53:31.345Z,9.00
2023-04-18T05:59:24.465Z,9.00
2023-04-18T06:05:18.000Z,9.00
2023-04-18T06:11:15.142Z,9.10
2023-04-18T06:17:10.109Z,9.10
2023-04-18T06:23:03.192Z,9.30
2023-04-18T06:28:57.888Z,9.30
2023-04-18T06:34:51.102Z,9.40
2023-04-18T06:40:44.476Z,9.60
2023-04-18T06:46:39.146Z,9.70
2023-04-18T06:52:32.670Z,9.90
2023-04-18T06:58:25.983Z,10.00
2023-04-18T07:04:20.865Z,10.10
2023-04-18T07:10:14.337Z,10.10
2023-04-18T07:16:08.217Z,10.30
2023-04-18T07:22:03.168Z,10.10
2023-04-18T07:27:56.424Z,10.30
2023-04-18T07:33:49.728Z,10.30
2023-04-18T07:39:44.144Z,10.60
2023-04-18T07:45:38.409Z,10.70
2023-04-18T07:51:32.547Z,10.90
2023-04-18T07:57:27.240Z,11.00
2023-04-18T08:03:21.114Z,11.00
2023-04-18T08:09:14.654Z,11.00
2023-04-18T08:15:10.687Z,11.20
2023-04-18T08:21:04.068Z,11.20
2023-04-18T08:26:57.642Z,11.20
2023-04-18T08:32:52.417Z,11.30
2023-04-18T08:38:45.804Z,11.20
2023-04-18T08:44:39.002Z,11.40
2023-04-18T08:50:33.586Z,11.40
2023-04-18T08:56:27.191Z,11.70
2023-04-18T09:02:22.196Z,11.90
2023-04-18T09:08:25.902Z,12.10
2023-04-18T09:14:25.982Z,12.00
2023-04-18T09:20:41.341Z,11.90
2023-04-18T09:26:36.383Z,11.90
2023-04-18T09:32:30.676Z,11.60
2023-04-18T09:38:40.667Z,11.50
2023-04-18T09:44:35.170Z,11.70
2023-04-18T09:50:28.592Z,11.80
2023-04-18T09:56:25.962Z,11.80
2023-04-18T10:02:23.930Z,11.90
2023-04-18T10:08:17.949Z,12.00
2023-04-18T10:14:13.756Z,12.10
2023-04-18T10:20:10.199Z,12.20
2023-04-18T10:26:04.385Z,12.30
2023-04-18T10:31:57.524Z,12.10
2023-04-18T10:37:53.222Z,12.10
2023-04-18T10:44:15.783Z,12.10
2023-04-18T10:50:09.211Z,12.10
2023-04-18T10:56:05.464Z,12.10
2023-04-18T11:02:02.619Z,12.20
2023-04-18T11:07:56.284Z,12.10
2023-04-18T11:13:58.570Z,12.10
2023-04-18T11:19:52.266Z,12.30
2023-04-18T11:25:47.022Z,12.40
2023-04-18T11:31:41.551Z,12.60
2023-04-18T11:37:34.970Z,12.70
2023-04-18T11:43:28.274Z,12.70
2023-04-18T11:49:29.696Z,12.70
2023-04-18T11:55:24.684Z,12.60
2023-04-18T12:01:21.681Z,12.80
2023-04-18T12:07:32.100Z,13.00
2023-04-18T12:13:33.567Z,13.30
2023-04-18T12:19:32.629Z,13.60
2023-04-18T12:25:27.905Z,13.70
2023-04-18T12:31:22.767Z,13.30
2023-04-18T12:37:15.871Z,13.40
2023-04-18T12:43:11.359Z,13.60
2023-04-18T12:49:04.560Z,13.80
2023-04-18T12:54:57.908Z,13.80
2023-04-18T13:00:52.655Z,14.40
2023-04-18T13:06:45.797Z,15.00
2023-04-18T13:12:39.447Z,15.20
2023-04-18T13:18:34.116Z,16.00
2023-04-18T13:24:27.633Z,15.60
2023-04-18T13:30:21.313Z,15.80
2023-04-18T13:36:16.770Z,15.70
2023-04-18T13:42:11.143Z,15.40
2023-04-18T13:48:04.610Z,14.60
2023-04-18T13:54:00.514Z,14.80
2023-04-18T13:59:53.786Z,14.90
2023-04-18T14:05:46.914Z,16.30
2023-04-18T14:11:41.654Z,16.90
2023-04-18T14:17:34.792Z,16.10
2023-04-18T14:23:28.140Z,15.90
2023-04-18T14:29:22.757Z,16.10
2023-04-18T14:35:16.250Z,15.60
2023-04-18T14:41:09.460Z,15.10
2023-04-18T14:47:04.242Z,15.10
2023-04-18T14:52:57.378Z,16.10
2023-04-18T14:58:50.657Z,15.70
2023-04-18T15:04:45.601Z,15.60
2023-04-18T15:10:38.782Z,15.60
2023-04-18T15:16:32.237Z,15.40
2023-04-18T15:22:26.770Z,15.50
2023-04-18T15:28:20.408Z,15.60
2023-04-18T15:34:14.148Z,15.60
2023-04-18T15:40:11.299Z,15.40
2023-04-18T15:46:04.569Z,15.30
2023-04-18T15:51:57.662Z,15.20
2023-04-18T15:57:52.550Z,15.10
2023-04-18T16:03:45.928Z,14.90
2023-04-18T16:09:39.240Z,14.80
2023-04-18T16:15:35.757Z,14.20
2023-04-18T16:21:29.467Z,14.20
2023-04-18T16:27:22.774Z,14.20
2023-04-18T16:33:20.641Z,14.40
2023-04-18T16:39:15.909Z,14.50
2023-04-18T16:45:09.836Z,14.40
2023-04-18T16:51:04.666Z,14.30
2023-04-18T16:56:58.074Z,14.30
2023-04-18T17:02:51.254Z,14.20
2023-04-18T17:08:46.267Z,14.10
2023-04-18T17:14:39.307Z,14.00
2023-04-18T17:20:32.583Z,13.90
2023-04-18T17:26:27.939Z,13.70
2023-04-18T17:32:21.147Z,13.70
2023-04-18T17:38:14.556Z,13.50
2023-04-18T17:44:10.470Z,13.40
2023-04-18T17:50:04.446Z,13.30
2023-04-18T17:55:59.216Z,13.10
2023-04-18T18:01:53.753Z,13.00
2023-04-18T18:07:48.105Z,13.10
2023-04-18T18:13:43.108Z,12.90
2023-04-18T18:19:37.734Z,12.90
2023-04-18T18:25:31.234Z,12.60
2023-04-18T18:31:25.934Z,12.40
2023-04-18T18:37:21.849Z,12.30
2023-04-18T18:43:14.995Z,12.20
2023-04-18T18:49:08.599Z,12.10
2023-04-18T18:55:04.079Z,11.80
2023-04-18T19:00:57.179Z,11.90
2023-04-18T19:06:50.501Z,11.80
2023-04-18T19:12:44.920Z,11.90
2023-04-18T19:18:38.208Z,11.70
2023-04-18T19:24:32.144Z,11.50
2023-04-18T19:30:26.829Z,11.20
2023-04-18T19:36:19.851Z,11.60
2023-04-18T19:42:12.899Z,11.50
2023-04-18T19:48:08.131Z,11.30
2023-04-18T19:54:01.624Z,11.40
2023-04-18T19:59:54.706Z,11.10
2023-04-18T20:05:49.211Z,11.20
2023-04-18T20:11:43.298Z,11.20
2023-04-18T20:17:36.662Z,11.30
2023-04-18T20:23:31.380Z,11.40
2023-04-18T20:29:24.674Z,11.10
2023-04-18T20:35:17.983Z,11.20
2023-04-18T20:41:15.010Z,11.20
2023-04-18T20:47:08.390Z,11.00
2023-04-18T20:53:02.447Z,10.90
2023-04-18T20:58:57.209Z,10.90
2023-04-18T21:04:50.598Z,10.90
2023-04-18T21:10:43.708Z,11.00
2023-04-18T21:16:39.727Z,10.80
2023-04-18T21:22:33.104Z,10.70
2023-04-18T21:28:26.372Z,10.60
2023-04-18T21:34:21.319Z,10.50
2023-04-18T21:40:14.896Z,10.30
2023-04-18T21:46:08.151Z,10.30
2023-04-18T21:52:02.957Z,10.10
2023-04-18T21:57:56.186Z,10.10
2023-04-18T22:03:49.855Z,9.90
2023-04-18T22:09:44.910Z,10.00
2023-04-18T22:15:39.523Z,10.00
2023-04-18T22:21:32.806Z,9.80
2023-04-18T22:27:27.406Z,9.90
2023-04-18T22:33:20.911Z,9.50
2023-04-18T22:39:13.958Z,9.30
2023-04-18T22:45:09.576Z,9.40
2023-04-18T22:51:02.793Z,9.10
2023-04-18T22:56:56.098Z,9.10
2023-04-18T23:02:51.868Z,9.40
2023-04-18T23:08:45.214Z,9.30
2023-04-18T23:14:38.852Z,9.30
2023-04-18T23:20:33.538Z,9.30
2023-04-18T23:26:26.919Z,9.40
2023-04-18T23:32:20.197Z,9.20
2023-04-18T23:38:14.563Z,9.10
2023-04-18T23:44:07.616Z,9.20
2023-04-18T23:50:01.221Z,9.50
2023-04-18T23:55:55.974Z,9.20
